PWSweather.com
Personal Weather Stations
Station Observations
CALONGE
CalongeES 17251

CalongeES 17251

Lat: 41.85972222, Lon: 3.077777778

Elevation: 16

Station Type: Oregon WMR928N

Latest ConditionsUpdated 3:45:00 PM GMT+01:01 Thursday, Nov 14, 2019
Currently Today's Max Today's Min Today's Average
Temperature 45.7°F7.6°C 56.3°F13.5°C 45.5°F7.5°C 50.6°F10.3°C
Dew Point 42.0°F5.6°C 52.7°F11.5°C 37.3°F2.9°C 43.0°F6.1°C
Winds 3.5 mph NW5.6 kmh NW 10.5 mph -16.9 kmh - - 3.3 mph 5.3 kmh
Wind Gusts 10.5 mph16.9 kmh 16.7 mph26.9 kmh - -
Humidity 87% 93% 57% 76%
Pressure 29.41 in995.9 mb 29.71 in1006.1 mb 29.41 in995.9 mb -
Precipitation - 0.26 in6.6 mm - -
Hour Temp Dew Point Humidity Winds Wind Gusts Pressure Precip Precip Rate Daily Precip Total
03:45 PM 45.7°F7.6°C 42.0°F5.6°C 87% 3.5 mph NW5.6 kmh NW 10.5 mph16.9 kmh 29.41 in995.9 mb 0.01 in0.3 mm 0.00 in0.0 mm 0.26 in6.6 mm
03:30 PM 45.5°F7.5°C 41.6°F5.3°C 86% 4.7 mph WNW7.6 kmh WNW 6.4 mph10.3 kmh 29.41 in995.9 mb 0.02 in0.5 mm 0.00 in0.0 mm 0.25 in6.4 mm
03:15 PM 45.7°F7.6°C 41.7°F5.4°C 86% Calm Calm 10.0 mph16.1 kmh 29.41 in995.9 mb 0.04 in1.0 mm 0.00 in0.0 mm 0.25 in6.4 mm
03:00 PM 45.9°F7.7°C 41.9°F5.5°C 86% 5.9 mph NW9.5 kmh NW 15.5 mph24.9 kmh 29.41 in995.9 mb 0.05 in1.3 mm 0.00 in0.0 mm 0.25 in6.4 mm
02:45 PM 46.2°F7.9°C 42.3°F5.7°C 86% 6.4 mph NW10.3 kmh NW 14.4 mph23.2 kmh 29.41 in995.9 mb 0.09 in2.3 mm 0.00 in0.0 mm 0.25 in6.4 mm
02:30 PM 46.8°F8.2°C 42.2°F5.7°C 84% 10.5 mph NW16.9 kmh NW 16.7 mph26.9 kmh 29.41 in995.9 mb 0.10 in2.5 mm 0.04 in1.0 mm 0.23 in5.8 mm
02:15 PM 47.5°F8.6°C 43.2°F6.2°C 85% 6.4 mph NW10.3 kmh NW 11.4 mph18.3 kmh 29.41 in995.9 mb 0.09 in2.3 mm 0.00 in0.0 mm 0.21 in5.3 mm
02:00 PM 48.0°F8.9°C 42.1°F5.6°C 80% 7.6 mph NNW12.2 kmh NNW 13.2 mph21.2 kmh 29.45 in997.3 mb 0.09 in2.3 mm 0.05 in1.3 mm 0.20 in5.1 mm
01:45 PM 49.3°F9.6°C 39.5°F4.2°C 69% Calm Calm 5.3 mph8.5 kmh 29.41 in995.9 mb 0.05 in1.3 mm 0.12 in3.0 mm 0.16 in4.1 mm
01:30 PM 50.2°F10.1°C 39.6°F4.2°C 67% Calm Calm 10.8 mph17.4 kmh 29.41 in995.9 mb 0.02 in0.5 mm 0.04 in1.0 mm 0.13 in3.3 mm
01:15 PM 51.1°F10.6°C 38.1°F3.4°C 61% 7.6 mph NW12.2 kmh NW 10.5 mph16.9 kmh 29.41 in995.9 mb 0.01 in0.3 mm 0.04 in1.0 mm 0.12 in3.0 mm
01:00 PM 51.6°F10.9°C 37.3°F2.9°C 58% 3.5 mph NW5.6 kmh NW 10.5 mph16.9 kmh 29.41 in995.9 mb 0.00 in0.0 mm 0.00 in0.0 mm 0.11 in2.8 mm
12:45 PM 51.6°F10.9°C 37.7°F3.2°C 59% 6.4 mph NW10.3 kmh NW 13.2 mph21.2 kmh 29.41 in995.9 mb 0.00 in0.0 mm 0.00 in0.0 mm 0.11 in2.8 mm
12:30 PM 52.5°F11.4°C 37.7°F3.2°C 57% 5.3 mph NW8.5 kmh NW 14.4 mph23.2 kmh 29.41 in995.9 mb 0.00 in0.0 mm 0.00 in0.0 mm 0.11 in2.8 mm
12:15 PM 53.1°F11.7°C 38.2°F3.4°C 57% 7.6 mph NW12.2 kmh NW 10.8 mph17.4 kmh 29.45 in997.3 mb 0.00 in0.0 mm 0.00 in0.0 mm 0.11 in2.8 mm
12:00 PM 53.2°F11.8°C 38.4°F3.6°C 57% 6.4 mph NW10.3 kmh NW 11.4 mph18.3 kmh 29.45 in997.3 mb 0.00 in0.0 mm 0.00 in0.0 mm 0.11 in2.8 mm
11:45 AM 54.0°F12.2°C 40.8°F4.9°C 61% 8.2 mph NNW13.2 kmh NNW 11.4 mph18.3 kmh 29.45 in997.3 mb 0.00 in0.0 mm 0.00 in0.0 mm 0.11 in2.8 mm
11:30 AM 53.8°F12.1°C 42.7°F5.9°C 66% 4.1 mph NW6.6 kmh NW 8.2 mph13.2 kmh 29.45 in997.3 mb 0.00 in0.0 mm 0.00 in0.0 mm 0.11 in2.8 mm
11:15 AM 53.8°F12.1°C 43.5°F6.4°C 68% 6.4 mph NW10.3 kmh NW 10.0 mph16.1 kmh 29.45 in997.3 mb 0.00 in0.0 mm 0.00 in0.0 mm 0.11 in2.8 mm
11:00 AM 54.0°F12.2°C 45.5°F7.5°C 73% 2.9 mph N4.7 kmh N 9.4 mph15.1 kmh 29.47 in998.0 mb 0.00 in0.0 mm 0.00 in0.0 mm 0.11 in2.8 mm
10:45 AM 54.5°F12.5°C 47.4°F8.6°C 77% 3.5 mph N5.6 kmh N 11.4 mph18.3 kmh 29.45 in997.3 mb 0.00 in0.0 mm 0.00 in0.0 mm 0.11 in2.8 mm
10:30 AM 55.0°F12.8°C 49.3°F9.6°C 81% 9.4 mph NW15.1 kmh NW 11.4 mph18.3 kmh 29.45 in997.3 mb 0.00 in0.0 mm 0.00 in0.0 mm 0.11 in2.8 mm
10:15 AM 54.7°F12.6°C 52.7°F11.5°C 93% 4.1 mph NW6.6 kmh NW 8.8 mph14.2 kmh 29.45 in997.3 mb 0.00 in0.0 mm 0.00 in0.0 mm 0.11 in2.8 mm
10:00 AM 53.6°F12.0°C 50.7°F10.4°C 90% Calm Calm 5.3 mph8.5 kmh 29.47 in998.0 mb 0.00 in0.0 mm 0.00 in0.0 mm 0.11 in2.8 mm
09:45 AM 53.2°F11.8°C 50.1°F10.1°C 89% Calm Calm 5.3 mph8.5 kmh 29.47 in998.0 mb 0.00 in0.0 mm 0.00 in0.0 mm 0.11 in2.8 mm
09:30 AM 53.1°F11.7°C 49.3°F9.6°C 87% Calm Calm -- 29.47 in998.0 mb 0.00 in0.0 mm 0.00 in0.0 mm 0.11 in2.8 mm
09:15 AM 53.1°F11.7°C 49.0°F9.4°C 86% Calm Calm -- 29.47 in998.0 mb 0.02 in0.5 mm 0.00 in0.0 mm 0.11 in2.8 mm
09:00 AM 53.1°F11.7°C 49.3°F9.6°C 87% Calm Calm -- 29.47 in998.0 mb 0.04 in1.0 mm 0.00 in0.0 mm 0.11 in2.8 mm
08:45 AM 53.1°F11.7°C 49.0°F9.4°C 86% Calm Calm -- 29.47 in998.0 mb 0.05 in1.3 mm 0.00 in0.0 mm 0.11 in2.8 mm
08:30 AM 52.9°F11.6°C 48.5°F9.2°C 85% Calm Calm 7.6 mph12.2 kmh 29.45 in997.3 mb 0.05 in1.3 mm 0.00 in0.0 mm 0.11 in2.8 mm
08:15 AM 53.1°F11.7°C 48.0°F8.9°C 83% 5.3 mph SW8.5 kmh SW 11.4 mph18.3 kmh 29.47 in998.0 mb 0.06 in1.5 mm 0.00 in0.0 mm 0.09 in2.3 mm
08:00 AM 53.1°F11.7°C 47.1°F8.4°C 80% 8.8 mph SSW14.2 kmh SSW 13.2 mph21.2 kmh 29.50 in999.0 mb 0.07 in1.8 mm 0.01 in0.3 mm 0.07 in1.8 mm
07:45 AM 53.4°F11.9°C 46.7°F8.2°C 78% 4.1 mph SW6.6 kmh SW 10.0 mph16.1 kmh 29.50 in999.0 mb 0.06 in1.5 mm 0.00 in0.0 mm 0.06 in1.5 mm
07:30 AM 54.3°F12.4°C 46.2°F7.9°C 74% 5.9 mph SSW9.5 kmh SSW 14.4 mph23.2 kmh 29.50 in999.0 mb 0.06 in1.5 mm 0.12 in3.0 mm 0.06 in1.5 mm
07:15 AM 55.8°F13.2°C 47.2°F8.4°C 73% 9.4 mph SSW15.1 kmh SSW 16.7 mph26.9 kmh 29.50 in999.0 mb 0.03 in0.8 mm 0.12 in3.0 mm 0.03 in0.8 mm
07:00 AM 56.3°F13.5°C 45.1°F7.3°C 66% 4.7 mph SSW7.6 kmh SSW 10.0 mph16.1 kmh 29.50 in999.0 mb 0.00 in0.0 mm 0.00 in0.0 mm 0.00 in0.0 mm
06:45 AM 56.1°F13.4°C 44.5°F6.9°C 65% 5.3 mph SW8.5 kmh SW 10.8 mph17.4 kmh 29.50 in999.0 mb 0.00 in0.0 mm 0.00 in0.0 mm 0.00 in0.0 mm
06:30 AM 55.8°F13.2°C 42.5°F5.8°C 61% 6.4 mph SW10.3 kmh SW 13.8 mph22.2 kmh 29.53 in1000.0 mb 0.00 in0.0 mm 0.00 in0.0 mm 0.00 in0.0 mm
06:15 AM 55.0°F12.8°C 41.0°F5.0°C 59% 10.5 mph SSW16.9 kmh SSW 16.7 mph26.9 kmh 29.53 in1000.0 mb 0.00 in0.0 mm 0.00 in0.0 mm 0.00 in0.0 mm
06:00 AM 54.1°F12.3°C 40.6°F4.8°C 60% 7.6 mph SSW12.2 kmh SSW 10.8 mph17.4 kmh 29.53 in1000.0 mb 0.00 in0.0 mm 0.00 in0.0 mm 0.00 in0.0 mm
05:45 AM 53.1°F11.7°C 41.2°F5.1°C 64% 5.9 mph S9.5 kmh S 10.5 mph16.9 kmh 29.56 in1001.0 mb 0.00 in0.0 mm 0.00 in0.0 mm 0.00 in0.0 mm
05:30 AM 52.2°F11.2°C 41.1°F5.1°C 66% 4.7 mph S7.6 kmh S 8.2 mph13.2 kmh 29.56 in1001.0 mb 0.00 in0.0 mm 0.00 in0.0 mm 0.00 in0.0 mm
05:15 AM 51.4°F10.8°C 41.2°F5.1°C 68% 7.0 mph SSE11.3 kmh SSE 8.2 mph13.2 kmh 29.56 in1001.0 mb 0.00 in0.0 mm 0.00 in0.0 mm 0.00 in0.0 mm
05:00 AM 50.4°F10.2°C 41.7°F5.4°C 72% Calm Calm 10.5 mph16.9 kmh 29.59 in1002.0 mb 0.00 in0.0 mm 0.00 in0.0 mm 0.00 in0.0 mm
04:45 AM 47.3°F8.5°C 42.7°F5.9°C 84% Calm Calm 5.3 mph8.5 kmh 29.59 in1002.0 mb 0.00 in0.0 mm 0.00 in0.0 mm 0.00 in0.0 mm
04:30 AM 46.8°F8.2°C 42.5°F5.8°C 85% Calm Calm -- 29.59 in1002.0 mb 0.00 in0.0 mm 0.00 in0.0 mm 0.00 in0.0 mm
04:15 AM 45.5°F7.5°C 41.3°F5.2°C 85% Calm Calm -- 29.59 in1002.0 mb 0.00 in0.0 mm 0.00 in0.0 mm 0.00 in0.0 mm
04:00 AM 45.5°F7.5°C 40.9°F4.9°C 84% Calm Calm -- 29.62 in1003.0 mb 0.00 in0.0 mm 0.00 in0.0 mm 0.00 in0.0 mm
03:45 AM 45.9°F7.7°C 41.3°F5.2°C 84% Calm Calm -- 29.62 in1003.0 mb 0.00 in0.0 mm 0.00 in0.0 mm 0.00 in0.0 mm
03:30 AM 46.2°F7.9°C 41.7°F5.4°C 84% Calm Calm -- 29.62 in1003.0 mb 0.00 in0.0 mm 0.00 in0.0 mm 0.00 in0.0 mm
03:15 AM 46.4°F8.0°C 41.5°F5.3°C 83% Calm Calm -- 29.65 in1004.1 mb 0.00 in0.0 mm 0.00 in0.0 mm 0.00 in0.0 mm
03:00 AM 46.6°F8.1°C 41.7°F5.4°C 83% 2.9 mph WSW4.7 kmh WSW 4.7 mph7.6 kmh 29.65 in1004.1 mb 0.00 in0.0 mm 0.00 in0.0 mm 0.00 in0.0 mm
02:45 AM 47.1°F8.4°C 41.6°F5.3°C 81% Calm Calm -- 29.65 in1004.1 mb 0.00 in0.0 mm 0.00 in0.0 mm 0.00 in0.0 mm
02:30 AM 47.5°F8.6°C 42.6°F5.9°C 83% Calm Calm -- 29.65 in1004.1 mb 0.00 in0.0 mm 0.00 in0.0 mm 0.00 in0.0 mm
02:15 AM 48.0°F8.9°C 41.5°F5.3°C 78% Calm Calm -- 29.68 in1005.1 mb 0.00 in0.0 mm 0.00 in0.0 mm 0.00 in0.0 mm
02:00 AM 48.6°F9.2°C 42.0°F5.6°C 78% Calm Calm 7.0 mph11.3 kmh 29.68 in1005.1 mb 0.00 in0.0 mm 0.00 in0.0 mm 0.00 in0.0 mm
01:45 AM 48.6°F9.2°C 41.7°F5.4°C 77% 4.7 mph WNW7.6 kmh WNW 7.6 mph12.2 kmh 29.68 in1005.1 mb 0.00 in0.0 mm 0.00 in0.0 mm 0.00 in0.0 mm
01:30 AM 48.4°F9.1°C 41.5°F5.3°C 77% Calm Calm -- 29.68 in1005.1 mb 0.00 in0.0 mm 0.00 in0.0 mm 0.00 in0.0 mm
01:15 AM 48.2°F9.0°C 40.6°F4.8°C 75% Calm Calm -- 29.68 in1005.1 mb 0.00 in0.0 mm 0.00 in0.0 mm 0.00 in0.0 mm
01:00 AM 48.2°F9.0°C 40.3°F4.6°C 74% Calm Calm -- 29.68 in1005.1 mb 0.00 in0.0 mm 0.00 in0.0 mm 0.00 in0.0 mm
12:45 AM 48.0°F8.9°C 40.1°F4.5°C 74% Calm Calm -- 29.71 in1006.1 mb 0.00 in0.0 mm 0.00 in0.0 mm 0.00 in0.0 mm
12:30 AM 48.2°F9.0°C 39.9°F4.4°C 73% Calm Calm -- 29.71 in1006.1 mb 0.00 in0.0 mm 0.00 in0.0 mm 0.00 in0.0 mm
12:15 AM 48.6°F9.2°C 39.6°F4.2°C 71% Calm Calm 5.3 mph8.5 kmh 29.71 in1006.1 mb 0.00 in0.0 mm 0.00 in0.0 mm 0.00 in0.0 mm
12:00 AM 48.7°F9.3°C 39.8°F4.3°C 71% Calm Calm -- 29.71 in1006.1 mb 0.00 in0.0 mm 0.00 in0.0 mm 0.00 in0.0 mm